Time;durP1;ratioP1;P1;durP2;ratioP2;P2;SDS_P1;SDS_P2;PMS_P1;PMS_P2;Temp;Humidity;BMP_temperature;BMP_pressure;BME280_temperature;BME280_humidity;BME280_pressure;Samples;Min_cycle;Max_cycle;Signal;HPM_P1;HPM_P2
2021/08/28 00:01:08;;;;;;;7.28;2.63;;;;;;;;;;5103121;28;20118;-66
2021/08/28 00:03:35;;;;;;;3.90;2.22;;;;;;;;;;5099925;28;20463;-66
2021/08/28 00:06:02;;;;;;;2.83;2.22;;;;;;;;;;5085850;28;20567;-66
2021/08/28 00:08:28;;;;;;;4.43;2.50;;;;;;;;;;5096710;27;20133;-66
2021/08/28 00:10:55;;;;;;;4.45;2.38;;;;;;;;;;5103034;28;20135;-66
2021/08/28 00:13:21;;;;;;;5.47;2.67;;;;;;;;;;5103734;27;20131;-66
2021/08/28 00:15:49;;;;;;;4.50;2.40;;;;;;;;;;5101058;28;20082;-66
2021/08/28 00:18:16;;;;;;;4.30;2.42;;;;;;;;;;5098507;28;20067;-66
2021/08/28 00:20:42;;;;;;;5.40;2.75;;;;;;;;;;5102066;27;20131;-66
2021/08/28 00:23:08;;;;;;;6.18;2.65;;;;;;;;;;5101653;28;20127;-66
2021/08/28 00:25:35;;;;;;;3.37;2.23;;;;;;;;;;5104418;28;20130;-66
2021/08/28 00:28:03;;;;;;;3.40;2.50;;;;;;;;;;5100944;28;20126;-66
2021/08/28 00:30:29;;;;;;;3.60;2.50;;;;;;;;;;5101519;28;20039;-66
2021/08/28 00:32:56;;;;;;;5.07;2.92;;;;;;;;;;5106371;28;20134;-66
2021/08/28 00:35:22;;;;;;;3.65;2.40;;;;;;;;;;5103077;28;20043;-66
2021/08/28 00:37:48;;;;;;;3.75;2.40;;;;;;;;;;5100887;28;20484;-66
2021/08/28 00:40:15;;;;;;;3.90;2.70;;;;;;;;;;5104219;28;20044;-66
2021/08/28 00:42:51;;;;;;;4.90;2.60;;;;;;;;;;5100015;28;20051;-66
2021/08/28 00:45:19;;;;;;;5.38;2.83;;;;;;;;;;5104905;28;20123;-66
2021/08/28 00:47:50;;;;;;;3.10;2.60;;;;;;;;;;5095643;28;20127;-66
2021/08/28 00:50:17;;;;;;;4.60;2.65;;;;;;;;;;5096351;28;20058;-66
2021/08/28 00:52:44;;;;;;;4.32;2.97;;;;;;;;;;5099659;28;20047;-66
2021/08/28 00:55:10;;;;;;;4.35;3.03;;;;;;;;;;5099164;28;20707;-66
2021/08/28 00:57:37;;;;;;;4.03;2.67;;;;;;;;;;5100323;28;20141;-66
2021/08/28 01:00:05;;;;;;;6.20;2.90;;;;;;;;;;5103938;28;20116;-66
2021/08/28 01:02:32;;;;;;;4.60;3.03;;;;;;;;;;5099995;27;20044;-66
2021/08/28 01:05:01;;;;;;;5.97;3.10;;;;;;;;;;5086258;28;20048;-66
2021/08/28 01:07:43;;;;;;;4.60;3.13;;;;;;;;;;5099421;28;20159;-66
2021/08/28 01:10:11;;;;;;;4.45;3.20;;;;;;;;;;5101785;28;20042;-66
2021/08/28 01:12:40;;;;;;;3.83;3.15;;;;;;;;;;5089272;28;20503;-66
2021/08/28 01:15:08;;;;;;;4.40;3.10;;;;;;;;;;5079731;28;20131;-66
2021/08/28 01:17:35;;;;;;;4.55;3.00;;;;;;;;;;5103938;28;20063;-66
2021/08/28 01:20:05;;;;;;;7.80;3.05;;;;;;;;;;5097011;28;20135;-66
2021/08/28 01:22:34;;;;;;;3.92;2.90;;;;;;;;;;5096896;28;20135;-66
2021/08/28 01:25:01;;;;;;;4.88;3.40;;;;;;;;;;5097586;28;20554;-66
2021/08/28 01:27:28;;;;;;;4.63;3.20;;;;;;;;;;5101935;28;20075;-66
2021/08/28 01:29:55;;;;;;;7.80;3.50;;;;;;;;;;5092976;28;20075;-66
2021/08/28 01:32:22;;;;;;;6.73;3.30;;;;;;;;;;5094136;28;20130;-66
2021/08/28 01:34:49;;;;;;;4.53;3.13;;;;;;;;;;5095991;27;20823;-66
2021/08/28 01:37:17;;;;;;;6.07;3.40;;;;;;;;;;5099630;28;20056;-66
2021/08/28 01:39:43;;;;;;;;;;;;;;;;;;5099970;27;20081;-66
2021/08/28 01:42:11;;;;;;;4.15;3.10;;;;;;;;;;5093152;28;20027;-66
2021/08/28 01:44:38;;;;;;;6.38;3.97;;;;;;;;;;5103598;28;20078;-66
2021/08/28 01:47:13;;;;;;;7.38;4.50;;;;;;;;;;5098411;28;20090;-66
2021/08/28 01:49:40;;;;;;;7.88;4.03;;;;;;;;;;5097473;27;20568;-66
2021/08/28 01:52:07;;;;;;;9.13;4.13;;;;;;;;;;5100362;27;20130;-66
2021/08/28 01:54:33;;;;;;;6.85;3.90;;;;;;;;;;5096609;28;20150;-66
2021/08/28 01:57:01;;;;;;;5.15;3.95;;;;;;;;;;5103802;28;20071;-66
2021/08/28 01:59:29;;;;;;;4.88;3.65;;;;;;;;;;5099712;28;20461;-66
2021/08/28 02:01:55;;;;;;;5.57;3.75;;;;;;;;;;5104151;28;20080;-66
2021/08/28 02:04:22;;;;;;;6.75;4.00;;;;;;;;;;5103311;28;20495;-66
2021/08/28 02:06:51;;;;;;;6.28;4.10;;;;;;;;;;5097558;28;20044;-65
2021/08/28 02:09:23;;;;;;;8.23;4.18;;;;;;;;;;5098025;28;20084;-66
2021/08/28 02:12:01;;;;;;;5.70;4.05;;;;;;;;;;5100014;28;20075;-66
2021/08/28 02:14:36;;;;;;;5.88;4.00;;;;;;;;;;5095061;28;20116;-66
2021/08/28 02:17:06;;;;;;;8.02;4.97;;;;;;;;;;5100275;28;20133;-66
2021/08/28 02:19:34;;;;;;;6.15;4.30;;;;;;;;;;5101704;28;20100;-66
2021/08/28 02:22:02;;;;;;;8.27;4.30;;;;;;;;;;5102122;28;20499;-66
2021/08/28 02:24:31;;;;;;;7.35;4.45;;;;;;;;;;5096085;28;20126;-66
2021/08/28 02:27:09;;;;;;;5.57;4.25;;;;;;;;;;5097938;28;20079;-66
2021/08/28 02:29:37;;;;;;;7.57;4.47;;;;;;;;;;5092683;28;20131;-66
2021/08/28 02:32:05;;;;;;;6.93;3.88;;;;;;;;;;5098332;28;20135;-65
2021/08/28 02:34:33;;;;;;;7.57;3.70;;;;;;;;;;5098843;28;20044;-66
2021/08/28 02:37:00;;;;;;;6.70;4.22;;;;;;;;;;5098863;28;20138;-66
2021/08/28 02:39:27;;;;;;;7.38;4.20;;;;;;;;;;5098152;28;20079;-66
2021/08/28 02:41:55;;;;;;;6.07;3.95;;;;;;;;;;5103710;28;20114;-66
2021/08/28 02:44:22;;;;;;;5.65;4.03;;;;;;;;;;5093999;28;20071;-66
2021/08/28 02:46:50;;;;;;;7.35;4.43;;;;;;;;;;5090543;28;20078;-66
2021/08/28 02:49:16;;;;;;;7.47;4.32;;;;;;;;;;5093546;28;20135;-66
2021/08/28 02:51:44;;;;;;;7.03;4.33;;;;;;;;;;5099685;28;20075;-66
2021/08/28 02:54:11;;;;;;;9.40;4.45;;;;;;;;;;5100421;28;20083;-66
2021/08/28 02:56:38;;;;;;;19.02;4.80;;;;;;;;;;5095864;28;20132;-66
2021/08/28 02:59:04;;;;;;;6.13;4.35;;;;;;;;;;5098109;28;20131;-66
2021/08/28 03:01:32;;;;;;;7.95;4.20;;;;;;;;;;5104050;28;20139;-66
2021/08/28 03:03:59;;;;;;;6.90;4.47;;;;;;;;;;5103472;28;20119;-66
2021/08/28 03:06:27;;;;;;;6.18;4.43;;;;;;;;;;5105076;28;20082;-66
2021/08/28 03:08:54;;;;;;;8.05;4.72;;;;;;;;;;5105693;28;20084;-66
2021/08/28 03:11:21;;;;;;;8.68;4.65;;;;;;;;;;5100915;28;20129;-66
2021/08/28 03:13:47;;;;;;;9.77;4.75;;;;;;;;;;5105447;28;20130;-66
2021/08/28 03:16:15;;;;;;;7.25;4.72;;;;;;;;;;5103387;28;20052;-66
2021/08/28 03:18:43;;;;;;;8.52;4.82;;;;;;;;;;5102338;27;20858;-66
2021/08/28 03:21:11;;;;;;;10.77;4.53;;;;;;;;;;5101706;28;20071;-66
2021/08/28 03:23:39;;;;;;;7.25;4.80;;;;;;;;;;5104049;27;20150;-66
2021/08/28 03:26:08;;;;;;;10.98;4.32;;;;;;;;;;5106460;28;20052;-66
2021/08/28 03:28:35;;;;;;;6.20;4.10;;;;;;;;;;5103531;28;20143;-66
2021/08/28 03:31:02;;;;;;;15.50;4.68;;;;;;;;;;5106089;28;20131;-66
2021/08/28 03:33:29;;;;;;;7.63;4.53;;;;;;;;;;5106447;28;20055;-66
2021/08/28 03:35:56;;;;;;;7.35;4.45;;;;;;;;;;5101908;28;20142;-67
2021/08/28 03:38:22;;;;;;;10.15;5.05;;;;;;;;;;5096695;28;20142;-66
2021/08/28 03:40:49;;;;;;;7.57;4.28;;;;;;;;;;5099257;28;20119;-66
2021/08/28 03:43:16;;;;;;;8.52;4.72;;;;;;;;;;5100660;28;20143;-66
2021/08/28 03:45:42;;;;;;;10.05;5.20;;;;;;;;;;5100229;28;20508;-66
2021/08/28 03:48:09;;;;;;;9.85;5.45;;;;;;;;;;5103512;27;20051;-66
2021/08/28 03:50:35;;;;;;;8.43;4.75;;;;;;;;;;5097824;28;20087;-66
2021/08/28 03:53:02;;;;;;;8.77;4.78;;;;;;;;;;5103409;28;20086;-66
2021/08/28 03:55:28;;;;;;;7.35;4.95;;;;;;;;;;5103522;28;20139;-66
2021/08/28 03:57:55;;;;;;;8.43;5.35;;;;;;;;;;5102156;28;20135;-66
2021/08/28 04:00:22;;;;;;;7.57;5.13;;;;;;;;;;5101331;28;20084;-66
2021/08/28 04:02:48;;;;;;;9.95;4.93;;;;;;;;;;5106799;28;20771;-66
2021/08/28 04:05:15;;;;;;;11.57;4.78;;;;;;;;;;5096983;28;20126;-66
2021/08/28 04:07:42;;;;;;;11.77;5.28;;;;;;;;;;5101682;27;20086;-65
2021/08/28 04:10:08;;;;;;;7.63;4.88;;;;;;;;;;5099541;28;20130;-66
2021/08/28 04:12:35;;;;;;;7.95;4.57;;;;;;;;;;5100338;28;20052;-66
2021/08/28 04:15:02;;;;;;;8.20;4.63;;;;;;;;;;5100020;28;20090;-66
2021/08/28 04:17:29;;;;;;;9.05;4.53;;;;;;;;;;5100546;28;20118;-66
2021/08/28 04:19:55;;;;;;;9.07;4.28;;;;;;;;;;5100913;28;20510;-66
2021/08/28 04:22:22;;;;;;;9.17;4.57;;;;;;;;;;5101697;28;20123;-66
2021/08/28 04:24:48;;;;;;;13.13;4.15;;;;;;;;;;5101262;28;20147;-66
2021/08/28 04:27:15;;;;;;;6.97;4.18;;;;;;;;;;5097952;28;20122;-66
2021/08/28 04:29:41;;;;;;;11.27;4.40;;;;;;;;;;5100935;28;20135;-66
2021/08/28 04:32:08;;;;;;;8.60;4.10;;;;;;;;;;5098122;28;20118;-66
2021/08/28 04:34:35;;;;;;;9.30;4.32;;;;;;;;;;5099675;28;20083;-66
2021/08/28 04:37:01;;;;;;;8.88;4.05;;;;;;;;;;5100433;28;20123;-66
2021/08/28 04:39:28;;;;;;;7.25;4.10;;;;;;;;;;5096364;28;20079;-66
2021/08/28 04:41:54;;;;;;;7.47;4.03;;;;;;;;;;5105536;28;20127;-66
2021/08/28 04:44:21;;;;;;;7.75;4.05;;;;;;;;;;5101542;28;20128;-66
2021/08/28 04:46:47;;;;;;;9.27;4.15;;;;;;;;;;5098841;28;20076;-66
2021/08/28 04:49:14;;;;;;;7.03;4.15;;;;;;;;;;5100045;27;20135;-66
2021/08/28 04:51:40;;;;;;;7.07;4.00;;;;;;;;;;5101201;27;20150;-66
2021/08/28 04:54:07;;;;;;;6.55;3.42;;;;;;;;;;5100176;28;20091;-66
2021/08/28 04:56:33;;;;;;;6.70;3.95;;;;;;;;;;5107553;28;20119;-66
2021/08/28 04:59:00;;;;;;;7.03;3.95;;;;;;;;;;5100440;28;20126;-66
2021/08/28 05:01:26;;;;;;;12.35;3.85;;;;;;;;;;5097735;28;20130;-66
2021/08/28 05:03:53;;;;;;;8.05;3.40;;;;;;;;;;5098252;28;20056;-66
2021/08/28 05:06:20;;;;;;;5.28;3.50;;;;;;;;;;5104939;28;20079;-66
2021/08/28 05:08:46;;;;;;;6.90;3.60;;;;;;;;;;5097287;28;20105;-66
2021/08/28 05:11:13;;;;;;;5.57;3.10;;;;;;;;;;5097523;28;20130;-66
2021/08/28 05:13:39;;;;;;;6.75;3.55;;;;;;;;;;5099878;28;20119;-66
2021/08/28 05:16:06;;;;;;;7.15;3.25;;;;;;;;;;5080395;28;20621;-66
2021/08/28 05:18:34;;;;;;;8.03;3.60;;;;;;;;;;5100199;28;20082;-65
2021/08/28 05:21:00;;;;;;;;;;;;;;;;;;5102691;28;20474;-66
2021/08/28 05:23:27;;;;;;;6.47;3.42;;;;;;;;;;5094266;28;19974;-66
2021/08/28 05:25:53;;;;;;;10.30;3.63;;;;;;;;;;5099612;28;20102;-66
2021/08/28 05:28:20;;;;;;;6.07;3.22;;;;;;;;;;5104698;28;20083;-66
2021/08/28 05:30:46;;;;;;;5.32;3.50;;;;;;;;;;5093537;28;20202;-66
2021/08/28 05:33:14;;;;;;;7.38;3.85;;;;;;;;;;5097006;28;20471;-66
2021/08/28 05:35:41;;;;;;;5.40;3.20;;;;;;;;;;5097948;28;20474;-66
2021/08/28 05:38:07;;;;;;;6.73;3.50;;;;;;;;;;5097689;28;20052;-66
2021/08/28 05:40:34;;;;;;;7.05;3.60;;;;;;;;;;5106279;28;20119;-66
2021/08/28 05:43:00;;;;;;;7.18;3.50;;;;;;;;;;5096443;28;20221;-66
2021/08/28 05:45:27;;;;;;;5.18;3.38;;;;;;;;;;5093752;28;20478;-66
2021/08/28 05:47:53;;;;;;;5.65;3.50;;;;;;;;;;5092353;28;20044;-66
2021/08/28 05:50:20;;;;;;;4.22;2.75;;;;;;;;;;5105093;27;20087;-66
2021/08/28 05:52:46;;;;;;;5.25;3.15;;;;;;;;;;5103264;28;20094;-65
2021/08/28 05:55:14;;;;;;;5.03;3.20;;;;;;;;;;5098766;28;20090;-66
2021/08/28 05:57:41;;;;;;;5.40;2.97;;;;;;;;;;5098838;28;20071;-66
2021/08/28 06:00:08;;;;;;;6.65;3.22;;;;;;;;;;5095124;28;20126;-66
2021/08/28 06:02:39;;;;;;;6.22;3.13;;;;;;;;;;5097643;28;20055;-66
2021/08/28 06:05:09;;;;;;;6.80;3.20;;;;;;;;;;5096813;28;20055;-66
2021/08/28 06:07:36;;;;;;;3.75;2.67;;;;;;;;;;5096474;28;20063;-66
2021/08/28 06:10:03;;;;;;;8.82;3.25;;;;;;;;;;5094527;28;20130;-65
2021/08/28 06:12:30;;;;;;;6.20;2.95;;;;;;;;;;5101023;28;20083;-66
2021/08/28 06:14:56;;;;;;;8.98;3.63;;;;;;;;;;5100388;28;20541;-66
2021/08/28 06:17:23;;;;;;;6.60;3.30;;;;;;;;;;5096897;28;20115;-66
2021/08/28 06:19:50;;;;;;;8.90;2.90;;;;;;;;;;5096250;28;20467;-66
2021/08/28 06:22:16;;;;;;;7.73;3.13;;;;;;;;;;5100986;27;20467;-65
2021/08/28 06:24:43;;;;;;;9.98;2.80;;;;;;;;;;5094761;28;20075;-66
2021/08/28 06:27:09;;;;;;;5.90;2.85;;;;;;;;;;5102991;28;20126;-66
2021/08/28 06:29:36;;;;;;;5.75;2.85;;;;;;;;;;5099253;28;20154;-66
2021/08/28 06:32:03;;;;;;;3.77;2.60;;;;;;;;;;5101902;27;20127;-65
2021/08/28 06:34:30;;;;;;;3.92;2.60;;;;;;;;;;5098475;28;20330;-65
2021/08/28 06:36:56;;;;;;;5.45;2.90;;;;;;;;;;5098573;28;20785;-65
2021/08/28 06:39:23;;;;;;;7.97;3.00;;;;;;;;;;5095703;28;20134;-66
2021/08/28 06:41:49;;;;;;;5.38;2.90;;;;;;;;;;5096280;28;20119;-66
2021/08/28 06:44:18;;;;;;;3.97;3.00;;;;;;;;;;5097611;28;20229;-66
2021/08/28 06:46:47;;;;;;;11.07;3.08;;;;;;;;;;5097138;28;20079;-66
2021/08/28 06:49:14;;;;;;;6.88;2.75;;;;;;;;;;5101568;28;20040;-66
2021/08/28 06:51:40;;;;;;;7.55;2.80;;;;;;;;;;5098931;28;20050;-65
2021/08/28 06:54:06;;;;;;;6.22;2.70;;;;;;;;;;5098638;28;20158;-65
2021/08/28 06:56:33;;;;;;;4.53;2.40;;;;;;;;;;5098372;28;20079;-65
2021/08/28 06:59:00;;;;;;;3.73;2.70;;;;;;;;;;5099922;28;20138;-66
2021/08/28 07:01:26;;;;;;;4.70;3.00;;;;;;;;;;5099771;28;20097;-66
2021/08/28 07:03:53;;;;;;;3.88;2.40;;;;;;;;;;5098091;28;20075;-66
2021/08/28 07:06:20;;;;;;;3.90;2.55;;;;;;;;;;5107372;28;20075;-65
2021/08/28 07:08:46;;;;;;;3.45;2.45;;;;;;;;;;5097041;28;20058;-65
2021/08/28 07:11:13;;;;;;;3.70;2.70;;;;;;;;;;5097029;28;20123;-66
2021/08/28 07:13:40;;;;;;;6.18;2.50;;;;;;;;;;5092182;28;20076;-66
2021/08/28 07:16:06;;;;;;;4.55;2.60;;;;;;;;;;5094531;28;20134;-66
2021/08/28 07:18:32;;;;;;;4.82;2.67;;;;;;;;;;5099258;28;20044;-66
2021/08/28 07:20:59;;;;;;;3.97;2.70;;;;;;;;;;5097955;28;20131;-66
2021/08/28 07:23:25;;;;;;;2.60;1.75;;;;;;;;;;5097207;28;20127;-65
2021/08/28 07:25:52;;;;;;;5.30;2.42;;;;;;;;;;5099174;28;20126;-66
2021/08/28 07:28:19;;;;;;;3.80;2.50;;;;;;;;;;5100999;28;20130;-66
2021/08/28 07:30:46;;;;;;;4.05;2.40;;;;;;;;;;5092422;28;20134;-65
2021/08/28 07:33:12;;;;;;;5.00;2.22;;;;;;;;;;5092608;28;20044;-65
2021/08/28 07:35:39;;;;;;;5.03;2.20;;;;;;;;;;5097507;28;20055;-66
2021/08/28 07:38:05;;;;;;;3.78;1.98;;;;;;;;;;5096415;28;20060;-66
2021/08/28 07:40:31;;;;;;;3.58;2.45;;;;;;;;;;5094470;28;20123;-66
2021/08/28 07:42:58;;;;;;;5.40;2.35;;;;;;;;;;5093830;28;20075;-66
2021/08/28 07:45:26;;;;;;;4.10;2.47;;;;;;;;;;5096563;28;20126;-66
2021/08/28 07:47:52;;;;;;;5.53;2.20;;;;;;;;;;5097888;28;20086;-66
2021/08/28 07:50:19;;;;;;;6.72;2.72;;;;;;;;;;5102705;28;20139;-66
2021/08/28 07:52:45;;;;;;;4.43;2.10;;;;;;;;;;5105407;28;20040;-66
2021/08/28 07:55:13;;;;;;;4.60;2.17;;;;;;;;;;5103667;28;20048;-66
2021/08/28 07:57:40;;;;;;;3.22;2.25;;;;;;;;;;5103764;28;20083;-66
2021/08/28 08:00:07;;;;;;;4.20;2.28;;;;;;;;;;5092760;28;20602;-66
2021/08/28 08:02:34;;;;;;;4.90;2.55;;;;;;;;;;5098605;28;20058;-66
2021/08/28 08:05:01;;;;;;;4.25;2.40;;;;;;;;;;5101720;28;20052;-66
2021/08/28 08:07:27;;;;;;;5.30;2.40;;;;;;;;;;5098788;28;20151;-66
2021/08/28 08:09:54;;;;;;;3.75;2.60;;;;;;;;;;5100896;28;20537;-66
2021/08/28 08:12:21;;;;;;;5.20;2.40;;;;;;;;;;5104089;28;20117;-66
2021/08/28 08:14:48;;;;;;;5.00;2.63;;;;;;;;;;5101113;28;20047;-66
2021/08/28 08:17:15;;;;;;;4.10;2.55;;;;;;;;;;5092039;28;20067;-66
2021/08/28 08:19:42;;;;;;;3.53;2.38;;;;;;;;;;5102529;27;20135;-66
2021/08/28 08:22:09;;;;;;;5.63;2.60;;;;;;;;;;5097977;27;20086;-66
2021/08/28 08:24:35;;;;;;;5.15;2.30;;;;;;;;;;5098106;28;20559;-66
2021/08/28 08:27:02;;;;;;;6.03;2.05;;;;;;;;;;5096302;28;20131;-66
2021/08/28 08:29:28;;;;;;;7.77;3.20;;;;;;;;;;5099318;28;20090;-66
2021/08/28 08:31:55;;;;;;;4.75;2.45;;;;;;;;;;5095557;28;20135;-66
2021/08/28 08:34:21;;;;;;;5.72;2.53;;;;;;;;;;5104887;27;20134;-65
2021/08/28 08:36:49;;;;;;;9.13;2.40;;;;;;;;;;5103243;27;20476;-66
2021/08/28 08:39:17;;;;;;;4.53;2.28;;;;;;;;;;5100102;28;20044;-66
2021/08/28 08:41:45;;;;;;;7.45;2.58;;;;;;;;;;5103032;27;20127;-65
2021/08/28 08:44:12;;;;;;;3.70;2.30;;;;;;;;;;5101828;28;20067;-66
2021/08/28 08:46:38;;;;;;;6.75;2.78;;;;;;;;;;5101684;28;20090;-65
2021/08/28 08:49:06;;;;;;;2.57;2.30;;;;;;;;;;5098891;28;20499;-65
2021/08/28 08:51:36;;;;;;;3.63;2.53;;;;;;;;;;5097132;28;20554;-65
2021/08/28 08:54:03;;;;;;;4.30;2.53;;;;;;;;;;5098444;28;20048;-65
2021/08/28 08:56:30;;;;;;;3.78;2.50;;;;;;;;;;5102095;28;20087;-65
2021/08/28 08:58:57;;;;;;;4.30;2.90;;;;;;;;;;5102199;28;20075;-65
2021/08/28 09:01:24;;;;;;;5.07;2.50;;;;;;;;;;5097435;28;20087;-65
2021/08/28 09:03:50;;;;;;;5.38;3.05;;;;;;;;;;5103921;28;20090;-65
2021/08/28 09:06:17;;;;;;;5.23;2.93;;;;;;;;;;5100210;28;20056;-65
2021/08/28 09:08:43;;;;;;;3.80;2.85;;;;;;;;;;5098482;27;20470;-65
2021/08/28 09:11:20;;;;;;;4.57;2.78;;;;;;;;;;5101182;28;20080;-65
2021/08/28 09:13:47;;;;;;;5.85;2.60;;;;;;;;;;5101548;28;20087;-65
2021/08/28 09:16:27;;;;;;;4.82;3.00;;;;;;;;;;5102291;28;20154;-65
2021/08/28 09:18:54;;;;;;;4.53;2.95;;;;;;;;;;5096918;28;20127;-65
2021/08/28 09:21:22;;;;;;;7.55;3.10;;;;;;;;;;5098506;27;20472;-65
2021/08/28 09:23:57;;;;;;;5.35;3.30;;;;;;;;;;5097848;28;20082;-65
2021/08/28 09:26:33;;;;;;;7.18;2.53;;;;;;;;;;5098106;27;20083;-65
2021/08/28 09:29:00;;;;;;;7.53;2.45;;;;;;;;;;5098715;28;20043;-65
2021/08/28 09:31:40;;;;;;;10.52;3.35;;;;;;;;;;5097343;28;20131;-65
2021/08/28 09:34:19;;;;;;;4.30;2.58;;;;;;;;;;5102140;28;20544;-65
2021/08/28 09:36:51;;;;;;;4.97;2.80;;;;;;;;;;5096670;28;20155;-65
2021/08/28 09:39:17;;;;;;;5.72;2.75;;;;;;;;;;5090478;28;20570;-66
2021/08/28 09:41:43;;;;;;;3.70;2.65;;;;;;;;;;5092975;28;20050;-65
2021/08/28 09:44:11;;;;;;;7.57;3.15;;;;;;;;;;5096145;28;20139;-66
2021/08/28 09:46:37;;;;;;;6.63;2.97;;;;;;;;;;5098157;28;20040;-65
2021/08/28 09:49:04;;;;;;;6.90;2.50;;;;;;;;;;5098174;28;20121;-65
2021/08/28 09:51:34;;;;;;;4.05;2.55;;;;;;;;;;5094059;28;20550;-65
2021/08/28 09:54:01;;;;;;;6.07;2.83;;;;;;;;;;5085814;28;20150;-65
2021/08/28 09:56:28;;;;;;;5.95;2.92;;;;;;;;;;5098047;27;20075;-65
2021/08/28 09:58:55;;;;;;;4.65;2.95;;;;;;;;;;5092797;28;20083;-65
2021/08/28 10:01:22;;;;;;;9.40;2.85;;;;;;;;;;5092991;27;20152;-65
2021/08/28 10:03:49;;;;;;;;;;;;;;;;;;5095522;28;20081;-65
2021/08/28 10:06:15;;;;;;;5.55;2.80;;;;;;;;;;5093198;28;19924;-66
2021/08/28 10:08:42;;;;;;;5.38;2.83;;;;;;;;;;5092953;27;20514;-65
2021/08/28 10:11:08;;;;;;;4.45;2.72;;;;;;;;;;5088645;28;20044;-65
2021/08/28 10:13:35;;;;;;;7.70;2.88;;;;;;;;;;5092379;27;20127;-65
2021/08/28 10:16:03;;;;;;;3.50;2.60;;;;;;;;;;5090192;28;20836;-65
2021/08/28 10:18:30;;;;;;;3.90;2.75;;;;;;;;;;5088513;27;20043;-65
2021/08/28 10:21:00;;;;;;;5.88;2.58;;;;;;;;;;5091121;27;20125;-65
2021/08/28 10:23:30;;;;;;;4.43;2.83;;;;;;;;;;5089633;27;20063;-65
2021/08/28 10:25:58;;;;;;;7.55;3.20;;;;;;;;;;5098132;28;20459;-65
2021/08/28 10:28:26;;;;;;;8.55;2.88;;;;;;;;;;5090066;28;20588;-65
2021/08/28 10:30:53;;;;;;;6.03;3.10;;;;;;;;;;5092828;28;20051;-65
2021/08/28 10:33:20;;;;;;;10.30;2.90;;;;;;;;;;5094865;27;20061;-65
2021/08/28 10:35:47;;;;;;;6.65;2.90;;;;;;;;;;5093590;28;20443;-65
2021/08/28 10:38:18;;;;;;;5.20;3.00;;;;;;;;;;5093123;28;20389;-65
2021/08/28 10:40:45;;;;;;;5.13;3.03;;;;;;;;;;5098370;28;20495;-65
2021/08/28 10:43:12;;;;;;;4.15;2.95;;;;;;;;;;5092544;28;20433;-66
2021/08/28 10:45:39;;;;;;;5.53;2.83;;;;;;;;;;5090052;28;20078;-65
2021/08/28 10:48:07;;;;;;;4.95;2.92;;;;;;;;;;5094782;28;20048;-65
2021/08/28 10:50:33;;;;;;;;;;;;;;;;;;5079325;28;20203;-65
2021/08/28 10:53:01;;;;;;;6.40;2.72;;;;;;;;;;5097351;28;19919;-65
2021/08/28 10:55:38;;;;;;;5.22;3.10;;;;;;;;;;5088744;28;20134;-65
2021/08/28 10:58:15;;;;;;;4.50;3.10;;;;;;;;;;5093309;28;20466;-65
2021/08/28 11:00:43;;;;;;;6.00;2.80;;;;;;;;;;5092714;28;20478;-65
2021/08/28 11:03:26;;;;;;;6.57;3.55;;;;;;;;;;5093970;28;20044;-65
2021/08/28 11:06:11;;;;;;;6.38;2.72;;;;;;;;;;5094230;28;20499;-65
2021/08/28 11:08:57;;;;;;;5.55;3.03;;;;;;;;;;5096397;28;20120;-65
2021/08/28 11:11:30;;;;;;;4.70;3.00;;;;;;;;;;5093327;28;20083;-65
2021/08/28 11:13:58;;;;;;;3.60;2.58;;;;;;;;;;5098226;28;20253;-65
2021/08/28 11:16:39;;;;;;;6.00;3.03;;;;;;;;;;5098177;28;20050;-65
2021/08/28 11:19:10;;;;;;;10.65;3.40;;;;;;;;;;5094007;28;20063;-65
2021/08/28 11:21:40;;;;;;;5.88;2.88;;;;;;;;;;5098863;28;20154;-65
2021/08/28 11:24:14;;;;;;;5.80;3.10;;;;;;;;;;5100043;28;20925;-65
2021/08/28 11:26:40;;;;;;;5.53;3.10;;;;;;;;;;5102081;27;20660;-65
2021/08/28 11:29:30;;;;;;;4.03;2.42;;;;;;;;;;5100540;28;20155;-65
2021/08/28 11:32:11;;;;;;;3.97;3.05;;;;;;;;;;5100923;28;20112;-65
2021/08/28 11:34:42;;;;;;;5.20;3.30;;;;;;;;;;5100495;28;20043;-65
2021/08/28 11:37:28;;;;;;;6.93;2.92;;;;;;;;;;5098010;28;20134;-65
2021/08/28 11:39:56;;;;;;;4.70;3.15;;;;;;;;;;5099464;28;20101;-65
2021/08/28 11:42:23;;;;;;;4.50;3.25;;;;;;;;;;5093166;28;20134;-66
2021/08/28 11:44:51;;;;;;;10.18;3.85;;;;;;;;;;5102199;28;20127;-65
2021/08/28 11:47:18;;;;;;;6.70;3.38;;;;;;;;;;5101720;28;20130;-65
2021/08/28 11:49:45;;;;;;;7.00;3.28;;;;;;;;;;5095750;28;20131;-65
2021/08/28 11:52:12;;;;;;;5.40;3.30;;;;;;;;;;5096237;27;20040;-65
2021/08/28 11:54:38;;;;;;;6.47;3.22;;;;;;;;;;5099569;28;20123;-65
2021/08/28 11:57:05;;;;;;;5.68;3.60;;;;;;;;;;5098401;27;20076;-65
2021/08/28 11:59:38;;;;;;;7.85;3.72;;;;;;;;;;5104280;28;20205;-65
2021/08/28 12:02:06;;;;;;;6.00;3.78;;;;;;;;;;5100044;27;20439;-65
2021/08/28 12:04:34;;;;;;;4.15;3.22;;;;;;;;;;5097257;28;20518;-65
2021/08/28 12:07:01;;;;;;;6.18;3.30;;;;;;;;;;5096849;27;20044;-65
2021/08/28 12:09:27;;;;;;;6.78;3.70;;;;;;;;;;5106719;28;20051;-65
2021/08/28 12:11:55;;;;;;;4.95;3.13;;;;;;;;;;5104065;28;20123;-65
2021/08/28 12:14:27;;;;;;;8.65;3.58;;;;;;;;;;5099452;28;20123;-65
2021/08/28 12:16:54;;;;;;;4.97;3.60;;;;;;;;;;5100004;28;20131;-65
2021/08/28 12:19:22;;;;;;;12.90;3.65;;;;;;;;;;5101464;28;20071;-65
2021/08/28 12:21:48;;;;;;;;;;;;;;;;;;5099995;27;20079;-65
2021/08/28 12:24:25;;;;;;;6.55;3.53;;;;;;;;;;5100362;28;19920;-65
2021/08/28 12:26:59;;;;;;;6.07;3.88;;;;;;;;;;5096468;28;20067;-65
2021/08/28 12:29:27;;;;;;;6.43;4.05;;;;;;;;;;5098158;28;20146;-65
2021/08/28 12:31:58;;;;;;;6.53;3.80;;;;;;;;;;5091599;28;20177;-65
2021/08/28 12:34:25;;;;;;;5.78;3.30;;;;;;;;;;5100384;28;20042;-65
2021/08/28 12:36:52;;;;;;;6.95;3.40;;;;;;;;;;5103867;28;20159;-66
2021/08/28 12:39:18;;;;;;;7.20;3.72;;;;;;;;;;5101053;27;20044;-66
2021/08/28 12:41:44;;;;;;;8.38;3.72;;;;;;;;;;5099471;28;20072;-65
2021/08/28 12:44:12;;;;;;;5.00;3.55;;;;;;;;;;5101514;28;20143;-65
2021/08/28 12:46:40;;;;;;;5.00;3.15;;;;;;;;;;5098339;27;20684;-65
2021/08/28 12:49:06;;;;;;;6.20;3.80;;;;;;;;;;5104356;28;20127;-65
2021/08/28 12:51:33;;;;;;;6.43;4.10;;;;;;;;;;5101498;28;20075;-65
2021/08/28 12:54:00;;;;;;;5.47;3.80;;;;;;;;;;5102184;28;20055;-65
2021/08/28 12:56:26;;;;;;;6.50;3.58;;;;;;;;;;5097004;28;20075;-65
2021/08/28 12:58:52;;;;;;;6.35;4.20;;;;;;;;;;5099249;28;20079;-65
2021/08/28 13:01:19;;;;;;;10.98;3.92;;;;;;;;;;5098409;28;20075;-65
2021/08/28 13:03:47;;;;;;;7.00;4.00;;;;;;;;;;5088506;27;20086;-65
2021/08/28 13:06:20;;;;;;;8.52;3.65;;;;;;;;;;5104899;27;20075;-65
2021/08/28 13:08:47;;;;;;;6.00;3.83;;;;;;;;;;5099335;27;20080;-65
2021/08/28 13:11:20;;;;;;;6.97;3.83;;;;;;;;;;5099090;28;20127;-65
2021/08/28 13:13:53;;;;;;;6.65;3.97;;;;;;;;;;5095742;28;20042;-65
2021/08/28 13:16:19;;;;;;;5.78;3.53;;;;;;;;;;5100069;28;20135;-65
2021/08/28 13:19:05;;;;;;;7.50;4.10;;;;;;;;;;5101522;28;20043;-65
2021/08/28 13:21:35;;;;;;;7.28;4.70;;;;;;;;;;5097246;28;20138;-65
2021/08/28 13:24:11;;;;;;;8.13;3.90;;;;;;;;;;5101884;28;20562;-65
2021/08/28 13:26:57;;;;;;;7.90;3.38;;;;;;;;;;5095946;28;20139;-65
2021/08/28 13:29:24;;;;;;;6.13;4.00;;;;;;;;;;5098701;28;20071;-65
2021/08/28 13:32:04;;;;;;;7.88;4.47;;;;;;;;;;5101870;28;20075;-65
2021/08/28 13:34:34;;;;;;;5.18;3.85;;;;;;;;;;5100510;28;20121;-65
2021/08/28 13:37:02;;;;;;;5.75;4.30;;;;;;;;;;5102146;28;20071;-65
2021/08/28 13:39:29;;;;;;;;;;;;;;;;;;5099216;28;20083;-66
2021/08/28 13:41:55;;;;;;;6.30;4.32;;;;;;;;;;5096763;28;19963;-65
2021/08/28 13:44:22;;;;;;;5.75;3.97;;;;;;;;;;5096731;28;20079;-65
2021/08/28 13:46:48;;;;;;;7.97;4.38;;;;;;;;;;5094142;28;20492;-65
2021/08/28 13:49:15;;;;;;;7.77;4.67;;;;;;;;;;5098391;28;20473;-65
2021/08/28 13:51:42;;;;;;;5.63;3.92;;;;;;;;;;5099716;28;20313;-65
2021/08/28 13:54:08;;;;;;;7.75;4.30;;;;;;;;;;5095636;27;20078;-65
2021/08/28 13:56:35;;;;;;;6.38;4.38;;;;;;;;;;5094055;28;20436;-65
2021/08/28 13:59:01;;;;;;;5.57;4.20;;;;;;;;;;5096784;28;20117;-65
2021/08/28 14:01:28;;;;;;;6.72;4.18;;;;;;;;;;5101335;28;20044;-66
2021/08/28 14:03:54;;;;;;;9.05;4.25;;;;;;;;;;5097808;28;20060;-66
2021/08/28 14:06:21;;;;;;;7.87;4.43;;;;;;;;;;5104231;27;20043;-67
2021/08/28 14:08:47;;;;;;;8.10;3.90;;;;;;;;;;5097573;28;20086;-64
2021/08/28 14:11:14;;;;;;;6.72;4.47;;;;;;;;;;5100668;27;20396;-64
2021/08/28 14:13:41;;;;;;;6.30;4.37;;;;;;;;;;5098923;28;20134;-65
2021/08/28 14:16:08;;;;;;;6.25;4.43;;;;;;;;;;5097025;28;20048;-64
2021/08/28 14:18:34;;;;;;;7.82;4.18;;;;;;;;;;5096946;28;20050;-64
2021/08/28 14:21:01;;;;;;;8.13;4.72;;;;;;;;;;5100040;28;20048;-64
2021/08/28 14:23:27;;;;;;;9.80;4.55;;;;;;;;;;5097356;28;20126;-65
2021/08/28 14:25:54;;;;;;;7.15;4.57;;;;;;;;;;5097522;28;20075;-65
2021/08/28 14:28:21;;;;;;;9.27;4.30;;;;;;;;;;5094924;28;20123;-65
2021/08/28 14:30:47;;;;;;;6.65;4.70;;;;;;;;;;5102333;27;20150;-65
2021/08/28 14:33:14;;;;;;;7.80;4.35;;;;;;;;;;5094109;28;20085;-65
2021/08/28 14:35:41;;;;;;;7.13;4.22;;;;;;;;;;5096254;28;20086;-65
2021/08/28 14:38:07;;;;;;;7.13;4.80;;;;;;;;;;5098846;27;20097;-65
2021/08/28 14:40:34;;;;;;;11.80;4.43;;;;;;;;;;5103657;28;20090;-65
2021/08/28 14:43:00;;;;;;;7.90;4.13;;;;;;;;;;5094433;28;20062;-65
2021/08/28 14:45:27;;;;;;;6.65;4.10;;;;;;;;;;5096478;28;20043;-65
2021/08/28 14:47:53;;;;;;;7.13;4.72;;;;;;;;;;5098842;28;20047;-65